Time;durP1;ratioP1;P1;durP2;ratioP2;P2;SDS_P1;SDS_P2;PMS_P1;PMS_P2;Temp;Humidity;BMP_temperature;BMP_pressure;BME280_temperature;BME280_humidity;BME280_pressure;Samples;Min_cycle;Max_cycle;Signal;HPM_P1;HPM_P2
2022/07/18 00:02:08;;;;;;;;;;;21.10;66.80;;;;;;4359582;32;44415;-74
2022/07/18 00:04:41;;;;;;;;;;;21.20;67.10;;;;;;4359579;32;43913;-75
2022/07/18 00:07:10;;;;;;;;;;;21.10;66.80;;;;;;4346545;32;42749;-75
2022/07/18 00:09:38;;;;;;;;;;;21.10;66.90;;;;;;4360088;32;43026;-75
2022/07/18 00:12:06;;;;;;;;;;;21.10;66.90;;;;;;4359923;32;42024;-75
2022/07/18 00:14:38;;;;;;;;;;;21.10;67.00;;;;;;4359722;32;42883;-74
2022/07/18 00:17:06;;;;;;;;;;;21.00;67.00;;;;;;4346563;33;45767;-74
2022/07/18 00:19:39;;;;;;;;;;;21.00;67.10;;;;;;4359982;33;42379;-74
2022/07/18 00:22:15;;;;;;;;;;;21.00;67.40;;;;;;4346343;33;43001;-74
2022/07/18 00:24:42;;;;;;;;;;;21.00;67.10;;;;;;4346159;33;42533;-74
2022/07/18 00:27:09;;;;;;;;;;;20.90;67.20;;;;;;4359447;33;43652;-75
2022/07/18 00:29:36;;;;;;;;;;;20.90;67.30;;;;;;4346706;33;43743;-75
2022/07/18 00:32:04;;;;;;;;;;;20.90;67.90;;;;;;4346570;33;43482;-75
2022/07/18 00:34:34;;;;;;;;;;;20.90;67.60;;;;;;4359861;33;45774;-76
2022/07/18 00:37:01;;;;;;;;;;;20.90;67.70;;;;;;4346741;33;45801;-75
2022/07/18 00:39:30;;;;;;;;;;;20.90;68.00;;;;;;4346477;33;43636;-75
2022/07/18 00:42:00;;;;;;;;;;;20.80;68.40;;;;;;4359797;33;42517;-75
2022/07/18 00:44:30;;;;;;;;;;;20.80;68.40;;;;;;4346799;33;19997;-75
2022/07/18 00:47:00;;;;;;;;;;;20.80;68.60;;;;;;4359860;33;43572;-74
2022/07/18 00:49:32;;;;;;;;;;;20.70;69.10;;;;;;4359337;33;44288;-75
2022/07/18 00:52:01;;;;;;;;;;;20.70;68.60;;;;;;4346494;33;44127;-75
2022/07/18 00:54:32;;;;;;;;;;;20.70;68.40;;;;;;4359685;33;43930;-75
2022/07/18 00:57:00;;;;;;;;;;;20.70;68.70;;;;;;4359757;33;45712;-76
2022/07/18 01:01:42;;;;;;;;;;;20.70;69.40;;;;;;4346124;33;43687;-76
2022/07/18 01:02:15;;;;;;;;;;;20.70;69.40;;;;;;4359588;33;45796;-74
2022/07/18 01:04:42;;;;;;;;;;;20.70;69.50;;;;;;4345985;33;43690;-74
2022/07/18 01:07:12;;;;;;;;;;;20.60;69.60;;;;;;4359596;33;43653;-74
2022/07/18 01:09:45;;;;;;;;;;;20.60;69.60;;;;;;4359188;33;43741;-75
2022/07/18 01:12:12;;;;;;;;;;;20.60;69.80;;;;;;4359829;33;44292;-74
2022/07/18 01:14:39;;;;;;;;;;;20.60;69.80;;;;;;4360959;33;20048;-74
2022/07/18 01:17:16;;;;;;;;;;;20.50;69.60;;;;;;4359699;33;43036;-75
2022/07/18 01:19:49;;;;;;;;;;;20.50;70.10;;;;;;4345957;33;44227;-74
2022/07/18 01:22:17;;;;;;;;;;;20.50;70.30;;;;;;4359555;33;43741;-75
2022/07/18 01:24:45;;;;;;;;;;;20.50;70.30;;;;;;4346286;33;43895;-75
2022/07/18 01:27:13;;;;;;;;;;;20.40;70.20;;;;;;4346306;32;44457;-75
2022/07/18 01:29:47;;;;;;;;;;;20.40;70.00;;;;;;4349191;32;45006;-75
2022/07/18 01:32:15;;;;;;;;;;;20.40;70.30;;;;;;4362348;32;43091;-75
2022/07/18 01:34:48;;;;;;;;;;;20.40;70.10;;;;;;4349209;32;43735;-75
2022/07/18 01:37:16;;;;;;;;;;;20.30;69.90;;;;;;4348165;32;43045;-75
2022/07/18 01:39:44;;;;;;;;;;;20.30;69.70;;;;;;4362275;32;43173;-75
2022/07/18 01:42:12;;;;;;;;;;;20.30;69.60;;;;;;4361534;32;42990;-74
2022/07/18 01:44:53;;;;;;;;;;;20.20;69.70;;;;;;4350109;32;20115;-75
2022/07/18 01:47:21;;;;;;;;;;;20.20;70.00;;;;;;4362012;32;45816;-76
2022/07/18 01:49:48;;;;;;;;;;;20.20;70.10;;;;;;4361697;32;42172;-75
2022/07/18 01:52:20;;;;;;;;;;;20.20;70.20;;;;;;4348061;32;42906;-74
2022/07/18 01:54:47;;;;;;;;;;;20.20;70.30;;;;;;4348118;32;43388;-75
2022/07/18 01:57:14;;;;;;;;;;;20.20;70.20;;;;;;4361386;32;43382;-75
2022/07/18 01:59:47;;;;;;;;;;;20.20;70.60;;;;;;4361875;32;43029;-75
2022/07/18 02:02:14;;;;;;;;;;;20.20;70.70;;;;;;4361824;32;43757;-74
2022/07/18 02:04:59;;;;;;;;;;;20.20;70.60;;;;;;4361456;32;43719;-74
2022/07/18 02:07:35;;;;;;;;;;;20.20;70.70;;;;;;4361756;32;44817;-75
2022/07/18 02:10:05;;;;;;;;;;;20.20;70.70;;;;;;4361676;32;44648;-75
2022/07/18 02:12:32;;;;;;;;;;;20.10;70.30;;;;;;4361453;32;43709;-75
2022/07/18 02:15:05;;;;;;;;;;;20.10;70.60;;;;;;4361233;32;45812;-75
2022/07/18 02:17:38;;;;;;;;;;;20.20;71.00;;;;;;4361143;32;42586;-74
2022/07/18 02:20:11;;;;;;;;;;;20.20;71.10;;;;;;4361438;32;42821;-74
2022/07/18 02:22:38;;;;;;;;;;;20.20;70.90;;;;;;4348268;32;43899;-75
2022/07/18 02:25:14;;;;;;;;;;;20.20;70.80;;;;;;4348346;32;42667;-74
2022/07/18 02:27:47;;;;;;;;;;;20.20;71.00;;;;;;4361696;32;43308;-74
2022/07/18 02:30:17;;;;;;;;;;;20.20;71.20;;;;;;4360951;32;42853;-74
2022/07/18 02:32:49;;;;;;;;;;;20.10;71.30;;;;;;4348206;32;43820;-74
2022/07/18 02:35:28;;;;;;;;;;;20.10;71.40;;;;;;4347962;32;45765;-75
2022/07/18 02:37:55;;;;;;;;;;;20.10;71.20;;;;;;4361473;32;44585;-75
2022/07/18 02:40:22;;;;;;;;;;;20.10;71.20;;;;;;4361522;32;43623;-74
2022/07/18 02:42:54;;;;;;;;;;;20.10;71.20;;;;;;4361147;32;45254;-74
2022/07/18 02:45:22;;;;;;;;;;;20.10;71.20;;;;;;4361898;32;20394;-74
2022/07/18 02:48:00;;;;;;;;;;;20.10;70.90;;;;;;4360583;32;44907;-74
2022/07/18 02:50:35;;;;;;;;;;;20.10;71.00;;;;;;4360801;32;42901;-74
2022/07/18 02:53:11;;;;;;;;;;;20.10;71.70;;;;;;4361212;32;44135;-74
2022/07/18 02:55:41;;;;;;;;;;;20.10;71.50;;;;;;4361229;32;43181;-74
2022/07/18 02:58:14;;;;;;;;;;;20.00;71.40;;;;;;4360952;32;42207;-74
2022/07/18 03:00:41;;;;;;;;;;;20.10;71.30;;;;;;4360577;32;43474;-74
2022/07/18 03:03:13;;;;;;;;;;;20.00;71.50;;;;;;4360376;32;44250;-75
2022/07/18 03:05:42;;;;;;;;;;;20.00;72.20;;;;;;4361121;32;43939;-74
2022/07/18 03:08:12;;;;;;;;;;;19.90;71.70;;;;;;4347135;32;43494;-74
2022/07/18 03:10:44;;;;;;;;;;;19.90;71.60;;;;;;4360860;32;42986;-74
2022/07/18 03:13:12;;;;;;;;;;;19.90;71.80;;;;;;4360882;32;43108;-74
2022/07/18 03:15:42;;;;;;;;;;;19.90;72.10;;;;;;4361462;32;20001;-74
2022/07/18 03:18:18;;;;;;;;;;;19.90;72.10;;;;;;4360483;32;43664;-74
2022/07/18 03:20:53;;;;;;;;;;;19.80;72.10;;;;;;4360749;32;44699;-73
2022/07/18 03:23:28;;;;;;;;;;;19.90;72.60;;;;;;4360625;32;42172;-74
2022/07/18 03:25:55;;;;;;;;;;;19.90;72.40;;;;;;4360807;32;42945;-74
2022/07/18 03:28:31;;;;;;;;;;;19.80;72.20;;;;;;4360353;32;43485;-74
2022/07/18 03:31:01;;;;;;;;;;;19.80;72.40;;;;;;4346894;32;43652;-73
2022/07/18 03:33:36;;;;;;;;;;;19.90;72.20;;;;;;4346769;32;43640;-74
2022/07/18 03:36:03;;;;;;;;;;;19.90;72.30;;;;;;4360546;32;43486;-73
2022/07/18 03:38:35;;;;;;;;;;;19.90;72.30;;;;;;4360068;32;44858;-73
2022/07/18 03:41:05;;;;;;;;;;;19.90;72.40;;;;;;4346733;32;43897;-74
2022/07/18 03:43:38;;;;;;;;;;;19.90;72.00;;;;;;4347076;32;43487;-74
2022/07/18 03:46:11;;;;;;;;;;;19.90;72.10;;;;;;4360712;32;20397;-74
2022/07/18 03:48:41;;;;;;;;;;;19.80;72.20;;;;;;4360312;32;45743;-74
2022/07/18 03:51:08;;;;;;;;;;;19.80;72.10;;;;;;4360309;32;44220;-75
2022/07/18 03:53:40;;;;;;;;;;;19.80;72.20;;;;;;4346927;32;42122;-74
2022/07/18 03:56:08;;;;;;;;;;;19.80;72.40;;;;;;4360213;32;45756;-74
2022/07/18 03:58:40;;;;;;;;;;;19.70;72.50;;;;;;4360044;32;43609;-74
2022/07/18 04:01:07;;;;;;;;;;;19.80;72.60;;;;;;4345972;32;43650;-74
2022/07/18 04:03:43;;;;;;;;;;;19.70;72.60;;;;;;4346591;32;43675;-74
2022/07/18 04:06:10;;;;;;;;;;;19.70;72.80;;;;;;4347002;32;43828;-74
2022/07/18 04:08:45;;;;;;;;;;;19.70;73.00;;;;;;4359968;32;42864;-74
2022/07/18 04:11:15;;;;;;;;;;;19.70;72.80;;;;;;4359750;32;42466;-74
2022/07/18 04:13:51;;;;;;;;;;;19.70;72.70;;;;;;4347187;32;43170;-74
2022/07/18 04:16:18;;;;;;;;;;;19.70;72.90;;;;;;4346889;32;43753;-74
2022/07/18 04:18:51;;;;;;;;;;;19.60;72.70;;;;;;4346509;33;43676;-73
2022/07/18 04:21:26;;;;;;;;;;;19.60;72.60;;;;;;4359983;33;43894;-73
2022/07/18 04:23:53;;;;;;;;;;;19.60;72.40;;;;;;4346764;33;42895;-73
2022/07/18 04:26:21;;;;;;;;;;;19.60;72.30;;;;;;4359888;33;44378;-73
2022/07/18 04:28:54;;;;;;;;;;;19.60;71.80;;;;;;4359687;33;43368;-73
2022/07/18 04:31:27;;;;;;;;;;;19.60;71.90;;;;;;4359826;33;42471;-73
2022/07/18 04:33:57;;;;;;;;;;;19.60;71.80;;;;;;4359670;33;42927;-73
2022/07/18 04:36:25;;;;;;;;;;;19.60;71.00;;;;;;4346665;33;42911;-73
2022/07/18 04:38:52;;;;;;;;;;;19.70;69.60;;;;;;4346766;33;42192;-72
2022/07/18 04:41:22;;;;;;;;;;;19.70;70.00;;;;;;4359645;33;42843;-73
2022/07/18 04:43:50;;;;;;;;;;;19.70;68.90;;;;;;4346163;33;42471;-73
2022/07/18 04:46:17;;;;;;;;;;;19.80;69.20;;;;;;4360590;33;20402;-73
2022/07/18 04:48:44;;;;;;;;;;;19.80;69.40;;;;;;4346787;33;43820;-72
2022/07/18 04:51:11;;;;;;;;;;;19.80;69.50;;;;;;4345987;33;42498;-72
2022/07/18 04:53:42;;;;;;;;;;;19.80;69.10;;;;;;4346528;33;43757;-73
2022/07/18 04:56:11;;;;;;;;;;;19.80;69.00;;;;;;4346378;33;43725;-73
2022/07/18 04:58:38;;;;;;;;;;;19.80;68.80;;;;;;4346093;33;43876;-74
2022/07/18 05:01:05;;;;;;;;;;;19.80;68.60;;;;;;4359228;33;43652;-74
2022/07/18 05:03:32;;;;;;;;;;;19.90;69.00;;;;;;4348022;32;42856;-72
2022/07/18 05:06:02;;;;;;;;;;;19.90;68.80;;;;;;4348511;32;43038;-73
2022/07/18 05:08:31;;;;;;;;;;;19.90;68.70;;;;;;4348617;32;42538;-74
2022/07/18 05:10:58;;;;;;;;;;;19.90;68.90;;;;;;4348761;32;43729;-73
2022/07/18 05:13:26;;;;;;;;;;;19.90;69.50;;;;;;4362232;32;42429;-74
2022/07/18 05:15:53;;;;;;;;;;;20.00;68.70;;;;;;4362351;32;42970;-74
2022/07/18 05:18:22;;;;;;;;;;;19.90;68.90;;;;;;4362256;32;44845;-73
2022/07/18 05:20:49;;;;;;;;;;;20.00;69.20;;;;;;4361831;32;42864;-73
2022/07/18 05:23:17;;;;;;;;;;;20.00;69.10;;;;;;4348943;32;43663;-73
2022/07/18 05:25:44;;;;;;;;;;;20.00;69.20;;;;;;4361888;32;43777;-75
2022/07/18 05:28:14;;;;;;;;;;;20.10;69.40;;;;;;4362106;32;43563;-74
2022/07/18 05:30:41;;;;;;;;;;;20.10;69.30;;;;;;4361629;32;45779;-75
2022/07/18 05:33:09;;;;;;;;;;;20.10;69.30;;;;;;4348997;32;43759;-74
2022/07/18 05:35:36;;;;;;;;;;;20.10;69.30;;;;;;4348852;32;42915;-73
2022/07/18 05:38:03;;;;;;;;;;;20.20;69.10;;;;;;4361639;32;43663;-73
2022/07/18 05:40:30;;;;;;;;;;;20.20;68.50;;;;;;4348612;32;42814;-74
2022/07/18 05:42:57;;;;;;;;;;;20.20;68.90;;;;;;4348137;32;42973;-75
2022/07/18 05:45:27;;;;;;;;;;;20.20;68.30;;;;;;4361986;32;43715;-79
2022/07/18 05:47:57;;;;;;;;;;;20.20;67.50;;;;;;4349088;32;19997;-76
2022/07/18 05:50:27;;;;;;;;;;;20.30;67.70;;;;;;4361543;32;43800;-77
2022/07/18 05:52:57;;;;;;;;;;;20.30;67.40;;;;;;4361738;32;43028;-79
2022/07/18 05:55:25;;;;;;;;;;;20.30;67.90;;;;;;4361572;32;43090;-77
2022/07/18 05:57:57;;;;;;;;;;;20.30;68.20;;;;;;4348787;32;43108;-74
2022/07/18 06:00:25;;;;;;;;;;;20.40;67.80;;;;;;4361634;32;44283;-77
2022/07/18 06:02:52;;;;;;;;;;;20.40;67.60;;;;;;4361270;32;43099;-78
2022/07/18 06:05:19;;;;;;;;;;;20.40;67.60;;;;;;4348084;32;43776;-78
2022/07/18 06:07:50;;;;;;;;;;;20.50;67.40;;;;;;4361924;32;43723;-80
2022/07/18 06:10:23;;;;;;;;;;;20.50;67.50;;;;;;4361398;32;43111;-76
2022/07/18 06:12:50;;;;;;;;;;;20.50;67.00;;;;;;4361395;32;43028;-78
2022/07/18 06:15:17;;;;;;;;;;;20.50;67.00;;;;;;4360927;32;42487;-75
2022/07/18 06:17:44;;;;;;;;;;;20.60;68.20;;;;;;4348052;32;43848;-74
2022/07/18 06:20:11;;;;;;;;;;;20.60;67.50;;;;;;4361058;32;43579;-78
2022/07/18 06:22:39;;;;;;;;;;;20.60;68.30;;;;;;4360874;32;43946;-75
2022/07/18 06:25:06;;;;;;;;;;;20.60;67.70;;;;;;4361391;32;43028;-75
2022/07/18 06:27:35;;;;;;;;;;;20.70;68.10;;;;;;4361241;32;42842;-75
2022/07/18 06:30:07;;;;;;;;;;;20.70;67.90;;;;;;4361531;32;44307;-75
2022/07/18 06:32:34;;;;;;;;;;;20.70;68.50;;;;;;4360884;32;43478;-78
2022/07/18 06:35:01;;;;;;;;;;;20.70;68.80;;;;;;4360707;32;43029;-77
2022/07/18 06:37:28;;;;;;;;;;;20.70;68.30;;;;;;4347534;32;42160;-75
2022/07/18 06:39:56;;;;;;;;;;;20.80;69.00;;;;;;4361209;32;43704;-79
2022/07/18 06:42:28;;;;;;;;;;;20.80;67.60;;;;;;4361072;32;44430;-77
2022/07/18 06:44:58;;;;;;;;;;;20.80;67.90;;;;;;4360608;32;42447;-78
2022/07/18 06:47:25;;;;;;;;;;;20.80;67.60;;;;;;4360747;32;43064;-75
2022/07/18 06:49:55;;;;;;;;;;;20.90;67.10;;;;;;4347699;32;42158;-79
2022/07/18 06:52:22;;;;;;;;;;;21.00;67.20;;;;;;4360550;32;43478;-77
2022/07/18 06:54:49;;;;;;;;;;;21.00;67.00;;;;;;4360703;32;43929;-77
2022/07/18 06:57:18;;;;;;;;;;;21.00;67.10;;;;;;4347279;32;43105;-78
2022/07/18 06:59:45;;;;;;;;;;;21.10;67.10;;;;;;4360453;32;42780;-75
2022/07/18 07:02:23;;;;;;;;;;;21.10;67.10;;;;;;4360568;32;43121;-76
2022/07/18 07:04:51;;;;;;;;;;;21.10;66.60;;;;;;4360875;32;42966;-75
2022/07/18 07:07:18;;;;;;;;;;;21.20;66.70;;;;;;4360378;32;42535;-77
2022/07/18 07:09:45;;;;;;;;;;;21.20;66.50;;;;;;4347164;32;42872;-75
2022/07/18 07:12:12;;;;;;;;;;;21.20;66.00;;;;;;4347153;32;43675;-78
2022/07/18 07:14:39;;;;;;;;;;;21.30;65.70;;;;;;4360340;32;42658;-74
2022/07/18 07:17:06;;;;;;;;;;;21.30;65.70;;;;;;4360313;32;43663;-75
2022/07/18 07:19:34;;;;;;;;;;;21.40;65.10;;;;;;4360756;32;43756;-75
2022/07/18 07:22:03;;;;;;;;;;;21.40;64.50;;;;;;4360824;32;43055;-75
2022/07/18 07:24:30;;;;;;;;;;;21.40;65.30;;;;;;4346824;32;43823;-76
2022/07/18 07:27:00;;;;;;;;;;;21.50;65.20;;;;;;4360128;32;42070;-76
2022/07/18 07:29:27;;;;;;;;;;;21.60;64.80;;;;;;4360468;32;43481;-82
2022/07/18 07:31:54;;;;;;;;;;;21.60;65.30;;;;;;4360470;32;43538;-77
2022/07/18 07:34:21;;;;;;;;;;;21.60;65.00;;;;;;4360001;32;44241;-75
2022/07/18 07:36:48;;;;;;;;;;;21.70;65.20;;;;;;4360519;32;43401;-76
2022/07/18 07:39:15;;;;;;;;;;;21.70;65.10;;;;;;4360014;32;43644;-76
2022/07/18 07:41:42;;;;;;;;;;;21.80;64.70;;;;;;4360498;32;43005;-75
2022/07/18 07:44:09;;;;;;;;;;;21.80;64.80;;;;;;4347145;32;42148;-75
2022/07/18 07:46:36;;;;;;;;;;;21.80;64.30;;;;;;4359963;32;43654;-76
2022/07/18 07:49:06;;;;;;;;;;;21.90;63.60;;;;;;4360509;32;22098;-74
2022/07/18 07:51:33;;;;;;;;;;;22.00;64.00;;;;;;4346676;32;43707;-74
2022/07/18 07:54:05;;;;;;;;;;;22.00;63.30;;;;;;4360121;32;42188;-76
2022/07/18 07:56:35;;;;;;;;;;;22.10;62.80;;;;;;4360426;32;43730;-79
2022/07/18 07:59:02;;;;;;;;;;;22.10;62.40;;;;;;4360353;32;43196;-78
2022/07/18 08:01:29;;;;;;;;;;;22.10;63.10;;;;;;4346592;32;43025;-76
2022/07/18 08:03:57;;;;;;;;;;;22.20;63.60;;;;;;4346922;32;43687;-77
2022/07/18 08:06:24;;;;;;;;;;;22.20;63.80;;;;;;4359932;32;43039;-77
2022/07/18 08:08:51;;;;;;;;;;;22.20;62.80;;;;;;4346245;32;43486;-82
2022/07/18 08:11:25;;;;;;;;;;;22.30;63.50;;;;;;4347471;32;43754;-76
2022/07/18 08:13:53;;;;;;;;;;;22.30;62.90;;;;;;4359899;32;43031;-78
2022/07/18 08:16:21;;;;;;;;;;;22.40;62.70;;;;;;4345995;32;42470;-76
2022/07/18 08:18:48;;;;;;;;;;;22.50;62.90;;;;;;4359646;32;43075;-78
2022/07/18 08:21:15;;;;;;;;;;;22.50;62.00;;;;;;4346060;33;42526;-79
2022/07/18 08:23:44;;;;;;;;;;;22.50;62.70;;;;;;4359474;33;45272;-76
2022/07/18 08:26:11;;;;;;;;;;;22.60;62.30;;;;;;4359618;33;42927;-77
2022/07/18 08:28:38;;;;;;;;;;;22.60;62.30;;;;;;4346550;33;42831;-77
2022/07/18 08:31:05;;;;;;;;;;;22.60;62.70;;;;;;4359574;33;42123;-80
2022/07/18 08:33:33;;;;;;;;;;;22.70;61.30;;;;;;4359626;33;43076;-80
2022/07/18 08:36:00;;;;;;;;;;;22.70;61.20;;;;;;4359749;32;42524;-75
2022/07/18 08:38:28;;;;;;;;;;;22.70;61.20;;;;;;4349238;32;45666;-79
2022/07/18 08:40:56;;;;;;;;;;;22.80;60.20;;;;;;4362571;32;44230;-79
2022/07/18 08:43:24;;;;;;;;;;;22.80;59.90;;;;;;4362933;32;43596;-78
2022/07/18 08:45:54;;;;;;;;;;;22.80;60.60;;;;;;4362523;32;42460;-79
2022/07/18 08:48:21;;;;;;;;;;;22.80;60.70;;;;;;4363010;32;43753;-79
2022/07/18 08:50:48;;;;;;;;;;;22.90;60.60;;;;;;4362831;32;43024;-84
2022/07/18 08:53:17;;;;;;;;;;;22.90;60.40;;;;;;4362684;32;42873;-79
2022/07/18 08:55:44;;;;;;;;;;;23.00;60.10;;;;;;4362916;32;43937;-78
2022/07/18 08:58:15;;;;;;;;;;;23.00;58.90;;;;;;4362830;32;43335;-78
2022/07/18 09:01:02;;;;;;;;;;;23.10;58.90;;;;;;4351646;32;42915;-76
2022/07/18 09:03:32;;;;;;;;;;;23.10;59.50;;;;;;4362207;32;43651;-79
2022/07/18 09:06:04;;;;;;;;;;;23.10;59.00;;;;;;4362631;32;42121;-80
2022/07/18 09:08:31;;;;;;;;;;;23.10;59.30;;;;;;4362353;32;42605;-79
2022/07/18 09:11:00;;;;;;;;;;;23.10;59.60;;;;;;4348790;32;43995;-76
2022/07/18 09:13:33;;;;;;;;;;;23.10;58.10;;;;;;4348680;32;42524;-77
2022/07/18 09:16:07;;;;;;;;;;;23.10;58.80;;;;;;4362378;32;42579;-77
2022/07/18 09:18:36;;;;;;;;;;;23.10;58.50;;;;;;4362541;32;43081;-78
2022/07/18 09:21:04;;;;;;;;;;;23.10;58.70;;;;;;4362562;32;43676;-81
2022/07/18 09:23:32;;;;;;;;;;;23.10;58.50;;;;;;4361956;32;42578;-77
2022/07/18 09:26:00;;;;;;;;;;;23.10;58.40;;;;;;4348500;32;43618;-80
2022/07/18 09:28:27;;;;;;;;;;;23.10;58.50;;;;;;4362040;32;42144;-78
2022/07/18 09:30:55;;;;;;;;;;;23.20;58.00;;;;;;4362169;32;43658;-77
2022/07/18 09:33:22;;;;;;;;;;;23.10;58.60;;;;;;4361760;32;42870;-79
2022/07/18 09:35:51;;;;;;;;;;;23.20;58.80;;;;;;4361786;32;43576;-79
2022/07/18 09:38:20;;;;;;;;;;;23.20;59.00;;;;;;4361867;32;43233;-81
2022/07/18 09:40:49;;;;;;;;;;;23.20;58.40;;;;;;4362372;32;43684;-77
2022/07/18 09:43:17;;;;;;;;;;;23.20;57.90;;;;;;4348364;32;43919;-79
2022/07/18 09:45:47;;;;;;;;;;;23.10;58.20;;;;;;4362137;32;43709;-80
2022/07/18 09:48:15;;;;;;;;;;;23.20;58.20;;;;;;4360859;32;42490;-78
2022/07/18 09:50:48;;;;;;;;;;;23.20;58.40;;;;;;4363116;32;20005;-86
2022/07/18 09:53:19;;;;;;;;;;;23.20;57.90;;;;;;4362125;32;43315;-80
2022/07/18 09:56:00;;;;;;;;;;;23.20;58.20;;;;;;4361959;32;42906;-80
2022/07/18 09:58:28;;;;;;;;;;;23.20;57.00;;;;;;4361874;32;42935;-79
2022/07/18 10:00:55;;;;;;;;;;;23.20;57.00;;;;;;4361630;32;44256;-78
2022/07/18 10:03:23;;;;;;;;;;;23.30;57.20;;;;;;4361570;32;43659;-77
2022/07/18 10:05:52;;;;;;;;;;;23.20;57.40;;;;;;4348242;32;42815;-80
2022/07/18 10:08:21;;;;;;;;;;;23.30;57.10;;;;;;4361287;32;43725;-79
2022/07/18 10:10:54;;;;;;;;;;;23.30;56.90;;;;;;4361521;32;46018;-78
2022/07/18 10:13:22;;;;;;;;;;;23.40;57.60;;;;;;4348356;32;43726;-78
2022/07/18 10:15:50;;;;;;;;;;;23.40;57.20;;;;;;4348075;32;43715;-78
2022/07/18 10:18:18;;;;;;;;;;;23.40;57.20;;;;;;4361168;32;42578;-77
2022/07/18 10:20:46;;;;;;;;;;;23.40;57.70;;;;;;4362004;32;20016;-77
2022/07/18 10:23:16;;;;;;;;;;;23.40;56.90;;;;;;4347917;32;43686;-76
2022/07/18 10:25:44;;;;;;;;;;;23.40;56.40;;;;;;4361450;32;43866;-77
2022/07/18 10:28:12;;;;;;;;;;;23.40;57.50;;;;;;4347564;32;43382;-76
2022/07/18 10:30:39;;;;;;;;;;;23.30;56.00;;;;;;4361048;32;43046;-79
2022/07/18 10:33:25;;;;;;;;;;;23.40;57.30;;;;;;4347875;32;42719;-78
2022/07/18 10:36:03;;;;;;;;;;;23.40;57.60;;;;;;4347946;32;42657;-80
2022/07/18 10:38:38;;;;;;;;;;;23.50;57.20;;;;;;4361132;32;42617;-77
2022/07/18 10:41:06;;;;;;;;;;;23.50;57.00;;;;;;4361489;32;43830;-77
2022/07/18 10:43:34;;;;;;;;;;;23.50;57.50;;;;;;4361146;32;42823;-76
2022/07/18 10:46:02;;;;;;;;;;;23.50;56.80;;;;;;4361148;32;43535;-78
2022/07/18 10:48:34;;;;;;;;;;;23.50;57.40;;;;;;4347769;32;43042;-77
2022/07/18 10:51:05;;;;;;;;;;;23.60;58.30;;;;;;4361752;32;20033;-83
2022/07/18 10:53:51;;;;;;;;;;;23.60;56.40;;;;;;4360993;32;43878;-75
2022/07/18 10:56:18;;;;;;;;;;;23.60;56.80;;;;;;4361025;32;43490;-76
2022/07/18 10:58:45;;;;;;;;;;;23.70;57.10;;;;;;4360916;32;43818;-77
2022/07/18 11:01:16;;;;;;;;;;;23.70;56.90;;;;;;4360476;32;43335;-77
2022/07/18 11:03:43;;;;;;;;;;;23.70;56.20;;;;;;4347223;32;43709;-75
2022/07/18 11:06:10;;;;;;;;;;;23.80;56.80;;;;;;4360667;32;43811;-76
2022/07/18 11:08:37;;;;;;;;;;;23.80;57.00;;;;;;4360646;32;43139;-77
2022/07/18 11:11:05;;;;;;;;;;;23.80;56.80;;;;;;4360965;32;44020;-76
2022/07/18 11:13:35;;;;;;;;;;;23.80;56.60;;;;;;4360891;32;43735;-76
2022/07/18 11:16:06;;;;;;;;;;;23.90;56.70;;;;;;4360792;32;45017;-74
2022/07/18 11:18:43;;;;;;;;;;;23.90;56.40;;;;;;4360722;32;42202;-74
2022/07/18 11:21:19;;;;;;;;;;;24.00;56.20;;;;;;4361612;32;23316;-74
2022/07/18 11:23:48;;;;;;;;;;;24.00;56.60;;;;;;4360310;32;43712;-74
2022/07/18 11:26:22;;;;;;;;;;;24.00;57.20;;;;;;4360652;32;44778;-74
2022/07/18 11:28:57;;;;;;;;;;;24.00;57.30;;;;;;4360571;32;43768;-74
2022/07/18 11:31:24;;;;;;;;;;;24.00;57.50;;;;;;4347083;32;43668;-74
2022/07/18 11:33:51;;;;;;;;;;;24.00;56.80;;;;;;4360087;32;43681;-73
2022/07/18 11:36:20;;;;;;;;;;;24.00;57.20;;;;;;4360460;32;43603;-73
2022/07/18 11:38:54;;;;;;;;;;;24.10;56.00;;;;;;4360061;32;42125;-75
2022/07/18 11:41:22;;;;;;;;;;;24.10;56.10;;;;;;4360036;32;42748;-74
2022/07/18 11:43:52;;;;;;;;;;;24.10;55.30;;;;;;4346873;32;43918;-77
2022/07/18 11:46:21;;;;;;;;;;;24.20;55.80;;;;;;4360434;32;41747;-74
2022/07/18 11:48:58;;;;;;;;;;;24.30;55.60;;;;;;4360195;32;44122;-73
2022/07/18 11:51:33;;;;;;;;;;;24.30;56.10;;;;;;4348004;32;20001;-73
2022/07/18 11:54:00;;;;;;;;;;;24.30;55.80;;;;;;4347528;32;43749;-73
2022/07/18 11:56:27;;;;;;;;;;;24.40;56.20;;;;;;4346487;32;43642;-73
2022/07/18 11:58:54;;;;;;;;;;;24.40;55.60;;;;;;4360283;32;43189;-73
2022/07/18 12:01:22;;;;;;;;;;;24.50;56.20;;;;;;4346510;32;42825;-73
2022/07/18 12:03:52;;;;;;;;;;;24.50;56.40;;;;;;4359615;32;43861;-74
2022/07/18 12:06:21;;;;;;;;;;;24.50;56.40;;;;;;4359845;32;42822;-75
2022/07/18 12:08:52;;;;;;;;;;;24.60;55.80;;;;;;4359991;32;42197;-79
2022/07/18 12:11:34;;;;;;;;;;;24.60;56.30;;;;;;4359455;32;42873;-73
2022/07/18 12:14:01;;;;;;;;;;;24.60;55.80;;;;;;4360145;32;44278;-74
2022/07/18 12:16:40;;;;;;;;;;;24.60;55.70;;;;;;4360138;32;43181;-73
2022/07/18 12:19:11;;;;;;;;;;;24.70;56.40;;;;;;4360382;32;43865;-73
2022/07/18 12:21:51;;;;;;;;;;;24.70;55.80;;;;;;4360552;32;20468;-74
2022/07/18 12:24:32;;;;;;;;;;;24.80;56.20;;;;;;4346893;33;43679;-75
2022/07/18 12:27:09;;;;;;;;;;;24.80;56.30;;;;;;4346758;33;45730;-75
2022/07/18 12:29:55;;;;;;;;;;;24.80;54.50;;;;;;4360173;33;43303;-73
2022/07/18 12:32:26;;;;;;;;;;;24.90;53.80;;;;;;4346518;33;42778;-74
2022/07/18 12:34:59;;;;;;;;;;;25.00;54.70;;;;;;4360063;33;44929;-74
2022/07/18 12:37:30;;;;;;;;;;;25.00;54.80;;;;;;4359546;33;42610;-73
2022/07/18 12:39:57;;;;;;;;;;;25.10;54.20;;;;;;4359851;33;44061;-74
2022/07/18 12:42:47;;;;;;;;;;;25.10;53.90;;;;;;4348887;33;44841;-73
2022/07/18 12:45:14;;;;;;;;;;;25.10;54.00;;;;;;4360001;33;43780;-76
2022/07/18 12:47:41;;;;;;;;;;;25.10;54.70;;;;;;4346504;33;43015;-74
2022/07/18 12:50:08;;;;;;;;;;;25.10;53.80;;;;;;4346579;33;43684;-76
2022/07/18 12:52:41;;;;;;;;;;;25.20;54.00;;;;;;4359696;33;43683;-75
2022/07/18 12:55:11;;;;;;;;;;;25.20;54.00;;;;;;4359743;33;45604;-75
2022/07/18 12:57:38;;;;;;;;;;;25.20;53.70;;;;;;4359775;33;45528;-76
2022/07/18 13:00:05;;;;;;;;;;;25.30;54.20;;;;;;4359385;33;43707;-74
2022/07/18 13:02:32;;;;;;;;;;;25.30;54.00;;;;;;4359348;33;43821;-81
2022/07/18 13:05:00;;;;;;;;;;;25.30;54.60;;;;;;4346156;33;43010;-75
2022/07/18 13:07:27;;;;;;;;;;;25.30;53.30;;;;;;4359330;33;42117;-77
2022/07/18 13:09:54;;;;;;;;;;;25.30;53.20;;;;;;4345997;33;42141;-77
2022/07/18 13:12:21;;;;;;;;;;;25.40;54.20;;;;;;4346123;33;42923;-74
2022/07/18 13:14:48;;;;;;;;;;;25.40;54.00;;;;;;4359670;33;42472;-77
2022/07/18 13:17:15;;;;;;;;;;;25.50;54.30;;;;;;4359622;33;42805;-75
2022/07/18 13:19:42;;;;;;;;;;;25.50;54.40;;;;;;4359238;33;43039;-78
2022/07/18 13:22:09;;;;;;;;;;;25.50;54.10;;;;;;4359153;33;43540;-78
2022/07/18 13:24:39;;;;;;;;;;;25.50;54.00;;;;;;4348270;32;43174;-77
2022/07/18 13:27:06;;;;;;;;;;;25.60;53.90;;;;;;4348466;32;45779;-79
2022/07/18 13:29:33;;;;;;;;;;;25.60;53.90;;;;;;4348548;32;44172;-78
2022/07/18 13:32:02;;;;;;;;;;;25.60;53.50;;;;;;4362275;32;43804;-82
2022/07/18 13:34:30;;;;;;;;;;;25.60;53.80;;;;;;4362004;32;42093;-78
2022/07/18 13:36:57;;;;;;;;;;;25.60;54.00;;;;;;4361815;32;42901;-78
2022/07/18 13:39:24;;;;;;;;;;;25.70;53.50;;;;;;4362108;32;43262;-79
2022/07/18 13:41:51;;;;;;;;;;;25.70;53.70;;;;;;4362129;32;43765;-78
2022/07/18 13:44:18;;;;;;;;;;;25.70;54.70;;;;;;4362087;32;42150;-79
2022/07/18 13:46:45;;;;;;;;;;;25.70;54.00;;;;;;4348285;32;43856;-75
2022/07/18 13:49:12;;;;;;;;;;;25.80;54.10;;;;;;4361977;32;45019;-77
2022/07/18 13:51:39;;;;;;;;;;;25.80;53.60;;;;;;4348159;32;42641;-78
2022/07/18 13:54:06;;;;;;;;;;;25.80;52.90;;;;;;4348172;32;42808;-78
2022/07/18 13:56:34;;;;;;;;;;;25.90;53.20;;;;;;4361881;32;42441;-79
2022/07/18 13:59:03;;;;;;;;;;;25.90;51.80;;;;;;4348106;32;44143;-78
2022/07/18 14:01:30;;;;;;;;;;;25.90;52.70;;;;;;4348403;32;43182;-81
2022/07/18 14:03:59;;;;;;;;;;;26.00;53.30;;;;;;4361762;32;42097;-76
2022/07/18 14:06:26;;;;;;;;;;;26.00;52.40;;;;;;4348281;32;42880;-78
2022/07/18 14:08:53;;;;;;;;;;;26.10;53.70;;;;;;4361476;32;43046;-79
2022/07/18 14:11:20;;;;;;;;;;;26.10;53.40;;;;;;4361562;32;43694;-79
2022/07/18 14:13:47;;;;;;;;;;;26.10;53.00;;;;;;4361486;32;43021;-80
2022/07/18 14:16:14;;;;;;;;;;;26.20;52.50;;;;;;4361507;32;44202;-79
2022/07/18 14:18:42;;;;;;;;;;;26.20;51.50;;;;;;4347693;32;43781;-79
2022/07/18 14:21:09;;;;;;;;;;;26.20;52.20;;;;;;4361335;32;42105;-80
2022/07/18 14:23:43;;;;;;;;;;;26.20;52.10;;;;;;4348869;32;44638;-80
2022/07/18 14:26:10;;;;;;;;;;;26.20;52.80;;;;;;4361189;32;44275;-78
2022/07/18 14:28:37;;;;;;;;;;;26.20;53.00;;;;;;4361544;32;44482;-80
2022/07/18 14:31:05;;;;;;;;;;;26.20;52.90;;;;;;4360681;32;43807;-78